sensor_id;sensor_type;location;lat;lon;timestamp;temperature;humidity
3275;DHT22;1649;53.672;10.064;2023-12-04T00:01:59;-1.60;99.90
3275;DHT22;1649;53.672;10.064;2023-12-04T00:04:25;-1.70;99.90
3275;DHT22;1649;53.672;10.064;2023-12-04T00:06:50;-1.60;99.90
3275;DHT22;1649;53.672;10.064;2023-12-04T00:09:16;-1.60;99.90
3275;DHT22;1649;53.672;10.064;2023-12-04T00:11:41;-1.60;99.90
3275;DHT22;1649;53.672;10.064;2023-12-04T00:14:07;-1.60;99.90
3275;DHT22;1649;53.672;10.064;2023-12-04T00:16:34;-1.70;99.90
3275;DHT22;1649;53.672;10.064;2023-12-04T00:19:00;-1.70;99.90
3275;DHT22;1649;53.672;10.064;2023-12-04T00:21:26;-1.70;99.90
3275;DHT22;1649;53.672;10.064;2023-12-04T00:23:51;-1.70;99.90
3275;DHT22;1649;53.672;10.064;2023-12-04T00:26:17;-1.70;99.90
3275;DHT22;1649;53.672;10.064;2023-12-04T00:28:42;-1.80;99.90
3275;DHT22;1649;53.672;10.064;2023-12-04T00:31:08;-1.80;99.90
3275;DHT22;1649;53.672;10.064;2023-12-04T00:33:34;-1.80;99.90
3275;DHT22;1649;53.672;10.064;2023-12-04T00:35:59;-1.90;99.90
3275;DHT22;1649;53.672;10.064;2023-12-04T00:38:25;-1.90;99.90
3275;DHT22;1649;53.672;10.064;2023-12-04T00:40:50;-1.90;99.90
3275;DHT22;1649;53.672;10.064;2023-12-04T00:43:16;-2.00;99.90
3275;DHT22;1649;53.672;10.064;2023-12-04T00:45:41;-2.00;99.90
3275;DHT22;1649;53.672;10.064;2023-12-04T00:48:07;-2.00;99.90
3275;DHT22;1649;53.672;10.064;2023-12-04T00:50:32;-2.00;99.90
3275;DHT22;1649;53.672;10.064;2023-12-04T00:52:58;-2.00;99.90
3275;DHT22;1649;53.672;10.064;2023-12-04T00:55:23;-2.00;99.90
3275;DHT22;1649;53.672;10.064;2023-12-04T00:57:49;-2.00;99.90
3275;DHT22;1649;53.672;10.064;2023-12-04T01:00:15;-2.10;99.90
3275;DHT22;1649;53.672;10.064;2023-12-04T01:02:40;-2.10;99.90
3275;DHT22;1649;53.672;10.064;2023-12-04T01:05:06;-2.10;99.90
3275;DHT22;1649;53.672;10.064;2023-12-04T01:07:32;-2.10;99.90
3275;DHT22;1649;53.672;10.064;2023-12-04T01:09:57;-2.20;99.90
3275;DHT22;1649;53.672;10.064;2023-12-04T01:12:23;-2.20;99.90
3275;DHT22;1649;53.672;10.064;2023-12-04T01:14:48;-2.20;99.90
3275;DHT22;1649;53.672;10.064;2023-12-04T01:17:14;-2.20;99.90
3275;DHT22;1649;53.672;10.064;2023-12-04T01:19:39;-2.20;99.90
3275;DHT22;1649;53.672;10.064;2023-12-04T01:22:05;-2.20;99.90
3275;DHT22;1649;53.672;10.064;2023-12-04T01:24:31;-2.20;99.90
3275;DHT22;1649;53.672;10.064;2023-12-04T01:26:56;-2.20;99.90
3275;DHT22;1649;53.672;10.064;2023-12-04T01:29:22;-2.30;99.90
3275;DHT22;1649;53.672;10.064;2023-12-04T01:31:47;-2.30;99.90
3275;DHT22;1649;53.672;10.064;2023-12-04T01:34:13;-2.30;99.90
3275;DHT22;1649;53.672;10.064;2023-12-04T01:36:41;-2.30;99.90
3275;DHT22;1649;53.672;10.064;2023-12-04T01:39:07;-2.30;99.90
3275;DHT22;1649;53.672;10.064;2023-12-04T01:41:32;-2.30;99.90
3275;DHT22;1649;53.672;10.064;2023-12-04T01:43:58;-2.30;99.90
3275;DHT22;1649;53.672;10.064;2023-12-04T01:46:23;-2.30;99.90
3275;DHT22;1649;53.672;10.064;2023-12-04T01:48:49;-2.40;99.90
3275;DHT22;1649;53.672;10.064;2023-12-04T01:51:16;-2.30;99.90
3275;DHT22;1649;53.672;10.064;2023-12-04T01:53:42;-2.30;99.90
3275;DHT22;1649;53.672;10.064;2023-12-04T01:56:09;-2.40;99.90
3275;DHT22;1649;53.672;10.064;2023-12-04T01:58:35;-2.30;99.90
3275;DHT22;1649;53.672;10.064;2023-12-04T02:01:00;-2.40;99.90
3275;DHT22;1649;53.672;10.064;2023-12-04T02:03:26;-2.40;99.90
3275;DHT22;1649;53.672;10.064;2023-12-04T02:05:53;-2.40;99.90
3275;DHT22;1649;53.672;10.064;2023-12-04T02:08:19;-2.40;99.90
3275;DHT22;1649;53.672;10.064;2023-12-04T02:10:45;-2.40;99.90
3275;DHT22;1649;53.672;10.064;2023-12-04T02:13:11;-2.40;99.90
3275;DHT22;1649;53.672;10.064;2023-12-04T02:15:37;-2.40;99.90
3275;DHT22;1649;53.672;10.064;2023-12-04T02:18:03;-2.40;99.90
3275;DHT22;1649;53.672;10.064;2023-12-04T02:20:32;-2.40;99.90
3275;DHT22;1649;53.672;10.064;2023-12-04T02:22:59;-2.50;99.90
3275;DHT22;1649;53.672;10.064;2023-12-04T02:25:24;-2.50;99.90
3275;DHT22;1649;53.672;10.064;2023-12-04T02:27:50;-2.40;99.90
3275;DHT22;1649;53.672;10.064;2023-12-04T02:30:20;-2.40;99.90
3275;DHT22;1649;53.672;10.064;2023-12-04T02:32:47;-2.40;99.90
3275;DHT22;1649;53.672;10.064;2023-12-04T02:35:21;-2.50;99.90
3275;DHT22;1649;53.672;10.064;2023-12-04T02:37:47;-2.40;99.90
3275;DHT22;1649;53.672;10.064;2023-12-04T02:40:14;-2.40;99.90
3275;DHT22;1649;53.672;10.064;2023-12-04T02:42:39;-2.50;99.90
3275;DHT22;1649;53.672;10.064;2023-12-04T02:45:05;-2.50;99.90
3275;DHT22;1649;53.672;10.064;2023-12-04T02:47:31;-2.50;99.90
3275;DHT22;1649;53.672;10.064;2023-12-04T02:49:56;-2.50;99.90
3275;DHT22;1649;53.672;10.064;2023-12-04T02:52:22;-2.40;99.90
3275;DHT22;1649;53.672;10.064;2023-12-04T02:54:47;-2.50;99.90
3275;DHT22;1649;53.672;10.064;2023-12-04T02:57:13;-2.50;99.90
3275;DHT22;1649;53.672;10.064;2023-12-04T02:59:38;-2.50;99.90
3275;DHT22;1649;53.672;10.064;2023-12-04T03:02:04;-2.50;99.90
3275;DHT22;1649;53.672;10.064;2023-12-04T03:04:30;-2.50;99.90
3275;DHT22;1649;53.672;10.064;2023-12-04T03:06:56;-2.50;99.90
3275;DHT22;1649;53.672;10.064;2023-12-04T03:09:22;-2.50;99.90
3275;DHT22;1649;53.672;10.064;2023-12-04T03:11:47;-2.50;99.90
3275;DHT22;1649;53.672;10.064;2023-12-04T03:14:13;-2.60;99.90
3275;DHT22;1649;53.672;10.064;2023-12-04T03:16:38;-2.60;99.90
3275;DHT22;1649;53.672;10.064;2023-12-04T03:19:04;-2.50;99.90
3275;DHT22;1649;53.672;10.064;2023-12-04T03:21:29;-2.50;99.90
3275;DHT22;1649;53.672;10.064;2023-12-04T03:23:55;-2.50;99.90
3275;DHT22;1649;53.672;10.064;2023-12-04T03:26:20;-2.60;99.90
3275;DHT22;1649;53.672;10.064;2023-12-04T03:28:46;-2.50;99.90
3275;DHT22;1649;53.672;10.064;2023-12-04T03:31:11;-2.50;99.90
3275;DHT22;1649;53.672;10.064;2023-12-04T03:33:37;-2.60;99.90
3275;DHT22;1649;53.672;10.064;2023-12-04T03:36:02;-2.50;99.90
3275;DHT22;1649;53.672;10.064;2023-12-04T03:38:28;-2.60;99.90
3275;DHT22;1649;53.672;10.064;2023-12-04T03:40:54;-2.50;99.90
3275;DHT22;1649;53.672;10.064;2023-12-04T03:43:19;-2.50;99.90
3275;DHT22;1649;53.672;10.064;2023-12-04T03:45:45;-2.50;99.90
3275;DHT22;1649;53.672;10.064;2023-12-04T03:48:10;-2.50;99.90
3275;DHT22;1649;53.672;10.064;2023-12-04T03:50:35;-2.50;99.90
3275;DHT22;1649;53.672;10.064;2023-12-04T03:53:01;-2.50;99.90
3275;DHT22;1649;53.672;10.064;2023-12-04T03:55:27;-2.50;99.90
3275;DHT22;1649;53.672;10.064;2023-12-04T03:57:53;-2.50;99.90
3275;DHT22;1649;53.672;10.064;2023-12-04T04:00:19;-2.50;99.90
3275;DHT22;1649;53.672;10.064;2023-12-04T04:02:44;-2.50;99.90
3275;DHT22;1649;53.672;10.064;2023-12-04T04:05:10;-2.50;99.90
3275;DHT22;1649;53.672;10.064;2023-12-04T04:07:36;-2.50;99.90
3275;DHT22;1649;53.672;10.064;2023-12-04T04:10:01;-2.60;99.90
3275;DHT22;1649;53.672;10.064;2023-12-04T04:12:29;-2.60;99.90
3275;DHT22;1649;53.672;10.064;2023-12-04T04:14:55;-2.60;99.90
3275;DHT22;1649;53.672;10.064;2023-12-04T04:17:20;-2.70;99.90
3275;DHT22;1649;53.672;10.064;2023-12-04T04:19:46;-2.60;99.90
3275;DHT22;1649;53.672;10.064;2023-12-04T04:22:11;-2.60;99.90
3275;DHT22;1649;53.672;10.064;2023-12-04T04:24:37;-2.70;99.90
3275;DHT22;1649;53.672;10.064;2023-12-04T04:27:02;-2.70;99.90
3275;DHT22;1649;53.672;10.064;2023-12-04T04:29:28;-2.70;99.90
3275;DHT22;1649;53.672;10.064;2023-12-04T04:31:53;-2.70;99.90
3275;DHT22;1649;53.672;10.064;2023-12-04T04:34:21;-2.60;99.90
3275;DHT22;1649;53.672;10.064;2023-12-04T04:36:46;-2.70;99.90
3275;DHT22;1649;53.672;10.064;2023-12-04T04:39:13;-2.60;99.90
3275;DHT22;1649;53.672;10.064;2023-12-04T04:41:39;-2.60;99.90
3275;DHT22;1649;53.672;10.064;2023-12-04T04:44:05;-2.50;99.90
3275;DHT22;1649;53.672;10.064;2023-12-04T04:46:30;-2.50;99.90
3275;DHT22;1649;53.672;10.064;2023-12-04T04:48:56;-2.40;99.90
3275;DHT22;1649;53.672;10.064;2023-12-04T04:51:22;-2.40;99.90
3275;DHT22;1649;53.672;10.064;2023-12-04T04:53:47;-2.40;99.90
3275;DHT22;1649;53.672;10.064;2023-12-04T04:56:14;-2.30;99.90
3275;DHT22;1649;53.672;10.064;2023-12-04T04:58:39;-2.30;99.90
3275;DHT22;1649;53.672;10.064;2023-12-04T05:01:05;-2.30;99.90
3275;DHT22;1649;53.672;10.064;2023-12-04T05:03:30;-2.30;99.90
3275;DHT22;1649;53.672;10.064;2023-12-04T05:05:56;-2.20;99.90
3275;DHT22;1649;53.672;10.064;2023-12-04T05:08:21;-2.20;99.90
3275;DHT22;1649;53.672;10.064;2023-12-04T05:10:47;-2.20;99.90
3275;DHT22;1649;53.672;10.064;2023-12-04T05:13:12;-2.20;99.90
3275;DHT22;1649;53.672;10.064;2023-12-04T05:15:38;-2.10;99.90
3275;DHT22;1649;53.672;10.064;2023-12-04T05:18:03;-2.10;99.90
3275;DHT22;1649;53.672;10.064;2023-12-04T05:20:29;-2.10;99.90
3275;DHT22;1649;53.672;10.064;2023-12-04T05:22:54;-2.10;99.90
3275;DHT22;1649;53.672;10.064;2023-12-04T05:25:20;-2.10;99.90
3275;DHT22;1649;53.672;10.064;2023-12-04T05:27:45;-2.10;99.90
3275;DHT22;1649;53.672;10.064;2023-12-04T05:30:11;-2.10;99.90
3275;DHT22;1649;53.672;10.064;2023-12-04T05:32:37;-2.10;99.90
3275;DHT22;1649;53.672;10.064;2023-12-04T05:35:02;-2.00;99.90
3275;DHT22;1649;53.672;10.064;2023-12-04T05:37:28;-2.10;99.90
3275;DHT22;1649;53.672;10.064;2023-12-04T05:39:53;-2.10;99.90
3275;DHT22;1649;53.672;10.064;2023-12-04T05:42:19;-2.10;99.90
3275;DHT22;1649;53.672;10.064;2023-12-04T05:44:45;-2.00;99.90
3275;DHT22;1649;53.672;10.064;2023-12-04T05:47:10;-2.10;99.90
3275;DHT22;1649;53.672;10.064;2023-12-04T05:49:35;-2.10;99.90
3275;DHT22;1649;53.672;10.064;2023-12-04T05:52:01;-2.00;99.90
3275;DHT22;1649;53.672;10.064;2023-12-04T05:54:26;-2.00;99.90
3275;DHT22;1649;53.672;10.064;2023-12-04T05:56:52;-1.90;99.90
3275;DHT22;1649;53.672;10.064;2023-12-04T05:59:17;-1.90;99.90
3275;DHT22;1649;53.672;10.064;2023-12-04T06:01:43;-1.90;99.90
3275;DHT22;1649;53.672;10.064;2023-12-04T06:04:08;-1.90;99.90
3275;DHT22;1649;53.672;10.064;2023-12-04T06:06:34;-1.90;99.90
3275;DHT22;1649;53.672;10.064;2023-12-04T06:08:59;-1.90;99.90
3275;DHT22;1649;53.672;10.064;2023-12-04T06:11:25;-1.90;99.90
3275;DHT22;1649;53.672;10.064;2023-12-04T06:13:50;-1.90;99.90
3275;DHT22;1649;53.672;10.064;2023-12-04T06:16:16;-1.90;99.90
3275;DHT22;1649;53.672;10.064;2023-12-04T06:18:41;-1.90;99.90
3275;DHT22;1649;53.672;10.064;2023-12-04T06:21:07;-1.90;99.90
3275;DHT22;1649;53.672;10.064;2023-12-04T06:23:33;-1.90;99.90
3275;DHT22;1649;53.672;10.064;2023-12-04T06:25:59;-1.90;99.90
3275;DHT22;1649;53.672;10.064;2023-12-04T06:28:24;-1.90;99.90
3275;DHT22;1649;53.672;10.064;2023-12-04T06:30:50;-1.90;99.90
3275;DHT22;1649;53.672;10.064;2023-12-04T06:33:16;-1.90;99.90
3275;DHT22;1649;53.672;10.064;2023-12-04T06:35:43;-1.90;99.90
3275;DHT22;1649;53.672;10.064;2023-12-04T06:38:10;-1.90;99.90
3275;DHT22;1649;53.672;10.064;2023-12-04T06:40:39;-2.00;99.90
3275;DHT22;1649;53.672;10.064;2023-12-04T06:43:05;-2.10;99.90
3275;DHT22;1649;53.672;10.064;2023-12-04T06:45:31;-2.10;99.90
3275;DHT22;1649;53.672;10.064;2023-12-04T06:47:59;-2.00;99.90
3275;DHT22;1649;53.672;10.064;2023-12-04T06:50:24;-2.10;99.90
3275;DHT22;1649;53.672;10.064;2023-12-04T06:52:50;-2.10;99.90
3275;DHT22;1649;53.672;10.064;2023-12-04T06:55:15;-2.10;99.90
3275;DHT22;1649;53.672;10.064;2023-12-04T06:57:41;-2.00;99.90
3275;DHT22;1649;53.672;10.064;2023-12-04T07:00:07;-2.10;99.90
3275;DHT22;1649;53.672;10.064;2023-12-04T07:02:33;-2.20;99.90
3275;DHT22;1649;53.672;10.064;2023-12-04T07:04:59;-2.10;99.90
3275;DHT22;1649;53.672;10.064;2023-12-04T07:07:24;-2.20;99.90
3275;DHT22;1649;53.672;10.064;2023-12-04T07:09:50;-2.20;99.90
3275;DHT22;1649;53.672;10.064;2023-12-04T07:12:16;-2.20;99.90
3275;DHT22;1649;53.672;10.064;2023-12-04T07:14:41;-2.20;99.90
3275;DHT22;1649;53.672;10.064;2023-12-04T07:17:07;-2.20;99.90
3275;DHT22;1649;53.672;10.064;2023-12-04T07:19:32;-2.20;99.90
3275;DHT22;1649;53.672;10.064;2023-12-04T07:21:58;-2.20;99.90
3275;DHT22;1649;53.672;10.064;2023-12-04T07:24:23;-2.30;99.90
3275;DHT22;1649;53.672;10.064;2023-12-04T07:26:49;-2.20;99.90
3275;DHT22;1649;53.672;10.064;2023-12-04T07:29:15;-2.20;99.90
3275;DHT22;1649;53.672;10.064;2023-12-04T07:31:41;-2.30;99.90
3275;DHT22;1649;53.672;10.064;2023-12-04T07:34:07;-2.10;99.90
3275;DHT22;1649;53.672;10.064;2023-12-04T07:36:32;-2.10;99.90
3275;DHT22;1649;53.672;10.064;2023-12-04T07:38:58;-2.10;99.90
3275;DHT22;1649;53.672;10.064;2023-12-04T07:41:23;-2.10;99.90
3275;DHT22;1649;53.672;10.064;2023-12-04T07:43:49;-2.10;99.90
3275;DHT22;1649;53.672;10.064;2023-12-04T07:46:15;-2.10;99.90
3275;DHT22;1649;53.672;10.064;2023-12-04T07:48:41;-2.00;99.90
3275;DHT22;1649;53.672;10.064;2023-12-04T07:51:09;-2.00;99.90
3275;DHT22;1649;53.672;10.064;2023-12-04T07:53:34;-1.90;99.90
3275;DHT22;1649;53.672;10.064;2023-12-04T07:56:03;-1.90;99.90
3275;DHT22;1649;53.672;10.064;2023-12-04T07:58:30;-2.00;99.90
3275;DHT22;1649;53.672;10.064;2023-12-04T08:00:55;-2.00;99.90
3275;DHT22;1649;53.672;10.064;2023-12-04T08:03:21;-2.00;99.90
3275;DHT22;1649;53.672;10.064;2023-12-04T08:05:47;-2.00;99.90
3275;DHT22;1649;53.672;10.064;2023-12-04T08:08:13;-1.90;99.90
3275;DHT22;1649;53.672;10.064;2023-12-04T08:10:38;-1.90;99.90
3275;DHT22;1649;53.672;10.064;2023-12-04T08:13:04;-1.80;99.90
3275;DHT22;1649;53.672;10.064;2023-12-04T08:15:30;-1.70;99.90
3275;DHT22;1649;53.672;10.064;2023-12-04T08:17:55;-1.70;99.90
3275;DHT22;1649;53.672;10.064;2023-12-04T08:20:23;-1.70;99.90
3275;DHT22;1649;53.672;10.064;2023-12-04T08:22:48;-1.60;99.90
3275;DHT22;1649;53.672;10.064;2023-12-04T08:25:14;-1.60;99.90
3275;DHT22;1649;53.672;10.064;2023-12-04T08:27:40;-1.50;99.90
3275;DHT22;1649;53.672;10.064;2023-12-04T08:30:06;-1.40;99.90
3275;DHT22;1649;53.672;10.064;2023-12-04T08:32:31;-1.50;99.90
3275;DHT22;1649;53.672;10.064;2023-12-04T08:34:57;-1.50;99.90
3275;DHT22;1649;53.672;10.064;2023-12-04T08:37:22;-1.40;99.90
3275;DHT22;1649;53.672;10.064;2023-12-04T08:39:48;-1.50;99.90
3275;DHT22;1649;53.672;10.064;2023-12-04T08:42:13;-1.40;99.90
3275;DHT22;1649;53.672;10.064;2023-12-04T08:44:39;-1.40;99.90
3275;DHT22;1649;53.672;10.064;2023-12-04T08:47:05;-1.40;99.90
3275;DHT22;1649;53.672;10.064;2023-12-04T08:49:31;-1.30;99.90
3275;DHT22;1649;53.672;10.064;2023-12-04T08:51:58;-1.30;99.90
3275;DHT22;1649;53.672;10.064;2023-12-04T08:54:24;-1.30;99.90
3275;DHT22;1649;53.672;10.064;2023-12-04T08:56:49;-1.30;99.90
3275;DHT22;1649;53.672;10.064;2023-12-04T08:59:15;-1.20;99.90
3275;DHT22;1649;53.672;10.064;2023-12-04T09:01:42;-1.20;99.90
3275;DHT22;1649;53.672;10.064;2023-12-04T09:04:09;-1.20;99.90
3275;DHT22;1649;53.672;10.064;2023-12-04T09:06:35;-1.30;99.90
3275;DHT22;1649;53.672;10.064;2023-12-04T09:09:00;-1.20;99.90
3275;DHT22;1649;53.672;10.064;2023-12-04T09:11:26;-1.20;99.90
3275;DHT22;1649;53.672;10.064;2023-12-04T09:13:51;-1.20;99.90
3275;DHT22;1649;53.672;10.064;2023-12-04T09:16:17;-1.10;99.90
3275;DHT22;1649;53.672;10.064;2023-12-04T09:18:42;-1.10;99.90
3275;DHT22;1649;53.672;10.064;2023-12-04T09:21:08;-1.10;99.90
3275;DHT22;1649;53.672;10.064;2023-12-04T09:23:35;-1.10;99.90
3275;DHT22;1649;53.672;10.064;2023-12-04T09:26:00;-1.10;99.90
3275;DHT22;1649;53.672;10.064;2023-12-04T09:28:26;-1.10;99.90
3275;DHT22;1649;53.672;10.064;2023-12-04T09:30:51;-1.20;99.90
3275;DHT22;1649;53.672;10.064;2023-12-04T09:33:17;-1.10;99.90
3275;DHT22;1649;53.672;10.064;2023-12-04T09:35:42;-1.10;99.90
3275;DHT22;1649;53.672;10.064;2023-12-04T09:38:09;-1.10;99.90
3275;DHT22;1649;53.672;10.064;2023-12-04T09:40:35;-1.10;99.90
3275;DHT22;1649;53.672;10.064;2023-12-04T09:43:00;-1.00;99.90
3275;DHT22;1649;53.672;10.064;2023-12-04T09:45:29;-1.00;99.90
3275;DHT22;1649;53.672;10.064;2023-12-04T09:47:55;-1.00;99.90
3275;DHT22;1649;53.672;10.064;2023-12-04T09:50:21;-1.10;99.90
3275;DHT22;1649;53.672;10.064;2023-12-04T09:52:51;-1.10;99.90
3275;DHT22;1649;53.672;10.064;2023-12-04T09:55:17;-1.10;99.90
3275;DHT22;1649;53.672;10.064;2023-12-04T09:57:44;-1.00;99.90
3275;DHT22;1649;53.672;10.064;2023-12-04T10:00:12;-1.00;99.90
3275;DHT22;1649;53.672;10.064;2023-12-04T10:02:39;-0.90;99.90
3275;DHT22;1649;53.672;10.064;2023-12-04T10:05:06;-0.90;99.90
3275;DHT22;1649;53.672;10.064;2023-12-04T10:07:32;-0.80;99.90
3275;DHT22;1649;53.672;10.064;2023-12-04T10:09:57;-0.80;99.90
3275;DHT22;1649;53.672;10.064;2023-12-04T10:12:23;-0.80;99.90
3275;DHT22;1649;53.672;10.064;2023-12-04T10:15:09;-0.70;99.90
3275;DHT22;1649;53.672;10.064;2023-12-04T10:17:36;-0.60;99.90
3275;DHT22;1649;53.672;10.064;2023-12-04T10:20:10;-0.60;99.90
3275;DHT22;1649;53.672;10.064;2023-12-04T10:22:51;-0.60;99.90
3275;DHT22;1649;53.672;10.064;2023-12-04T10:25:17;-0.50;99.90
3275;DHT22;1649;53.672;10.064;2023-12-04T10:27:46;-0.50;99.90
3275;DHT22;1649;53.672;10.064;2023-12-04T10:30:29;-0.40;99.90
3275;DHT22;1649;53.672;10.064;2023-12-04T10:33:01;-0.40;99.90
3275;DHT22;1649;53.672;10.064;2023-12-04T10:35:31;-0.30;99.90
3275;DHT22;1649;53.672;10.064;2023-12-04T10:37:57;-0.30;99.90
3275;DHT22;1649;53.672;10.064;2023-12-04T10:40:29;-0.30;99.90
3275;DHT22;1649;53.672;10.064;2023-12-04T10:45:40;-0.30;99.90
3275;DHT22;1649;53.672;10.064;2023-12-04T10:48:06;-0.30;99.90
3275;DHT22;1649;53.672;10.064;2023-12-04T10:50:37;-0.30;99.90
3275;DHT22;1649;53.672;10.064;2023-12-04T10:53:11;-0.40;99.90
3275;DHT22;1649;53.672;10.064;2023-12-04T10:55:37;-0.50;99.90
3275;DHT22;1649;53.672;10.064;2023-12-04T10:58:13;-0.40;99.90
3275;DHT22;1649;53.672;10.064;2023-12-04T11:00:48;-0.50;99.90
3275;DHT22;1649;53.672;10.064;2023-12-04T11:05:48;-0.50;99.90
3275;DHT22;1649;53.672;10.064;2023-12-04T11:08:17;-0.40;99.90
3275;DHT22;1649;53.672;10.064;2023-12-04T11:13:35;-0.50;99.90
3275;DHT22;1649;53.672;10.064;2023-12-04T11:16:06;-0.50;99.90
3275;DHT22;1649;53.672;10.064;2023-12-04T11:18:36;-0.50;99.90
3275;DHT22;1649;53.672;10.064;2023-12-04T11:21:08;-0.40;99.90
3275;DHT22;1649;53.672;10.064;2023-12-04T11:23:34;-0.40;99.90
3275;DHT22;1649;53.672;10.064;2023-12-04T11:26:00;-0.40;99.90
3275;DHT22;1649;53.672;10.064;2023-12-04T11:28:27;-0.40;99.90
3275;DHT22;1649;53.672;10.064;2023-12-04T11:30:53;-0.40;99.90
3275;DHT22;1649;53.672;10.064;2023-12-04T11:33:20;-0.30;99.90
3275;DHT22;1649;53.672;10.064;2023-12-04T11:35:46;-0.30;99.90
3275;DHT22;1649;53.672;10.064;2023-12-04T11:38:14;-0.30;99.90
3275;DHT22;1649;53.672;10.064;2023-12-04T11:40:41;-0.30;99.90
3275;DHT22;1649;53.672;10.064;2023-12-04T11:43:27;-0.30;99.90
3275;DHT22;1649;53.672;10.064;2023-12-04T11:45:53;-0.40;99.90
3275;DHT22;1649;53.672;10.064;2023-12-04T11:48:23;-0.50;99.90
3275;DHT22;1649;53.672;10.064;2023-12-04T11:50:49;-0.40;99.90
3275;DHT22;1649;53.672;10.064;2023-12-04T11:53:16;-0.50;99.90
3275;DHT22;1649;53.672;10.064;2023-12-04T11:55:41;-0.50;99.90
3275;DHT22;1649;53.672;10.064;2023-12-04T11:58:11;-0.50;99.90
3275;DHT22;1649;53.672;10.064;2023-12-04T12:00:37;-0.50;99.90
3275;DHT22;1649;53.672;10.064;2023-12-04T12:03:06;-0.40;99.90
3275;DHT22;1649;53.672;10.064;2023-12-04T12:05:33;-0.40;99.90
3275;DHT22;1649;53.672;10.064;2023-12-04T12:08:02;-0.30;99.90
3275;DHT22;1649;53.672;10.064;2023-12-04T12:10:28;-0.30;99.90
3275;DHT22;1649;53.672;10.064;2023-12-04T12:12:55;-0.30;99.90
3275;DHT22;1649;53.672;10.064;2023-12-04T12:15:20;-0.40;99.90
3275;DHT22;1649;53.672;10.064;2023-12-04T12:17:46;-0.40;99.90
3275;DHT22;1649;53.672;10.064;2023-12-04T12:20:13;-0.30;99.90
3275;DHT22;1649;53.672;10.064;2023-12-04T12:22:39;-0.30;99.90
3275;DHT22;1649;53.672;10.064;2023-12-04T12:25:10;-0.40;99.90
3275;DHT22;1649;53.672;10.064;2023-12-04T12:27:36;-0.40;99.90
3275;DHT22;1649;53.672;10.064;2023-12-04T12:30:02;-0.30;99.90
3275;DHT22;1649;53.672;10.064;2023-12-04T12:32:30;-0.30;99.90
3275;DHT22;1649;53.672;10.064;2023-12-04T12:34:56;-0.30;99.90
3275;DHT22;1649;53.672;10.064;2023-12-04T12:37:21;-0.30;99.90
3275;DHT22;1649;53.672;10.064;2023-12-04T12:39:47;-0.30;99.90
3275;DHT22;1649;53.672;10.064;2023-12-04T12:42:26;-0.30;99.90
3275;DHT22;1649;53.672;10.064;2023-12-04T12:44:55;-0.40;99.90
3275;DHT22;1649;53.672;10.064;2023-12-04T12:47:24;-0.40;99.90
3275;DHT22;1649;53.672;10.064;2023-12-04T12:49:50;-0.40;99.90
3275;DHT22;1649;53.672;10.064;2023-12-04T12:52:15;-0.40;99.90
3275;DHT22;1649;53.672;10.064;2023-12-04T12:54:42;-0.50;99.90
3275;DHT22;1649;53.672;10.064;2023-12-04T12:57:08;-0.40;99.90
3275;DHT22;1649;53.672;10.064;2023-12-04T12:59:34;-0.40;99.90
3275;DHT22;1649;53.672;10.064;2023-12-04T13:02:00;-0.50;99.90
3275;DHT22;1649;53.672;10.064;2023-12-04T13:04:33;-0.40;99.90
3275;DHT22;1649;53.672;10.064;2023-12-04T13:06:59;-0.50;99.90
3275;DHT22;1649;53.672;10.064;2023-12-04T13:09:24;-0.50;99.90
3275;DHT22;1649;53.672;10.064;2023-12-04T13:11:49;-0.50;99.90
3275;DHT22;1649;53.672;10.064;2023-12-04T13:14:17;-0.50;99.90
3275;DHT22;1649;53.672;10.064;2023-12-04T13:16:42;-0.50;99.90
3275;DHT22;1649;53.672;10.064;2023-12-04T13:19:08;-0.40;99.90
3275;DHT22;1649;53.672;10.064;2023-12-04T13:21:33;-0.40;99.90
3275;DHT22;1649;53.672;10.064;2023-12-04T13:23:59;-0.40;99.90
3275;DHT22;1649;53.672;10.064;2023-12-04T13:26:24;-0.40;99.90
3275;DHT22;1649;53.672;10.064;2023-12-04T13:28:50;-0.40;99.90
3275;DHT22;1649;53.672;10.064;2023-12-04T13:31:15;-0.40;99.90
3275;DHT22;1649;53.672;10.064;2023-12-04T13:33:40;-0.40;99.90
3275;DHT22;1649;53.672;10.064;2023-12-04T13:36:08;-0.40;99.90
3275;DHT22;1649;53.672;10.064;2023-12-04T13:38:34;-0.40;99.90
3275;DHT22;1649;53.672;10.064;2023-12-04T13:41:00;-0.40;99.90
3275;DHT22;1649;53.672;10.064;2023-12-04T13:43:34;-0.40;99.90
3275;DHT22;1649;53.672;10.064;2023-12-04T13:46:18;-0.40;99.90
3275;DHT22;1649;53.672;10.064;2023-12-04T13:48:44;-0.50;99.90
3275;DHT22;1649;53.672;10.064;2023-12-04T13:51:10;-0.40;99.90
3275;DHT22;1649;53.672;10.064;2023-12-04T13:53:36;-0.40;99.90
3275;DHT22;1649;53.672;10.064;2023-12-04T13:56:05;-0.50;99.90
3275;DHT22;1649;53.672;10.064;2023-12-04T13:58:37;-0.40;99.90
3275;DHT22;1649;53.672;10.064;2023-12-04T14:01:11;-0.40;99.90
3275;DHT22;1649;53.672;10.064;2023-12-04T14:03:41;-0.30;99.90
3275;DHT22;1649;53.672;10.064;2023-12-04T14:06:07;-0.30;99.90
3275;DHT22;1649;53.672;10.064;2023-12-04T14:08:32;-0.30;99.90
3275;DHT22;1649;53.672;10.064;2023-12-04T14:10:58;-0.30;99.90
3275;DHT22;1649;53.672;10.064;2023-12-04T14:13:24;-0.40;99.90
3275;DHT22;1649;53.672;10.064;2023-12-04T14:15:49;-0.30;99.90
3275;DHT22;1649;53.672;10.064;2023-12-04T14:18:15;-0.40;99.90
3275;DHT22;1649;53.672;10.064;2023-12-04T14:20:40;-0.40;99.90
3275;DHT22;1649;53.672;10.064;2023-12-04T14:23:06;-0.40;99.90
3275;DHT22;1649;53.672;10.064;2023-12-04T14:25:31;-0.40;99.90
3275;DHT22;1649;53.672;10.064;2023-12-04T14:27:57;-0.50;99.90
3275;DHT22;1649;53.672;10.064;2023-12-04T14:30:23;-0.50;99.90
3275;DHT22;1649;53.672;10.064;2023-12-04T14:32:48;-0.60;99.90
3275;DHT22;1649;53.672;10.064;2023-12-04T14:35:14;-0.60;99.90
3275;DHT22;1649;53.672;10.064;2023-12-04T14:37:40;-0.60;99.90
3275;DHT22;1649;53.672;10.064;2023-12-04T14:40:06;-0.60;99.90
3275;DHT22;1649;53.672;10.064;2023-12-04T14:42:31;-0.60;99.90
3275;DHT22;1649;53.672;10.064;2023-12-04T14:44:57;-0.60;99.90
3275;DHT22;1649;53.672;10.064;2023-12-04T14:47:22;-0.70;99.90
3275;DHT22;1649;53.672;10.064;2023-12-04T14:49:48;-0.70;99.90
3275;DHT22;1649;53.672;10.064;2023-12-04T14:52:18;-0.70;99.90
3275;DHT22;1649;53.672;10.064;2023-12-04T14:54:46;-0.70;99.90
3275;DHT22;1649;53.672;10.064;2023-12-04T14:57:31;-0.80;99.90
3275;DHT22;1649;53.672;10.064;2023-12-04T15:00:06;-0.70;99.90
3275;DHT22;1649;53.672;10.064;2023-12-04T15:02:35;-0.80;99.90
3275;DHT22;1649;53.672;10.064;2023-12-04T15:05:06;-0.80;99.90
3275;DHT22;1649;53.672;10.064;2023-12-04T15:07:35;-0.90;99.90
3275;DHT22;1649;53.672;10.064;2023-12-04T15:10:19;-0.90;99.90
3275;DHT22;1649;53.672;10.064;2023-12-04T15:12:45;-0.80;99.90
3275;DHT22;1649;53.672;10.064;2023-12-04T15:15:29;-0.90;99.90
3275;DHT22;1649;53.672;10.064;2023-12-04T15:17:54;-0.80;99.90
3275;DHT22;1649;53.672;10.064;2023-12-04T15:20:43;-0.90;99.90
3275;DHT22;1649;53.672;10.064;2023-12-04T15:23:09;-0.80;99.90
3275;DHT22;1649;53.672;10.064;2023-12-04T15:25:35;-0.90;99.90
3275;DHT22;1649;53.672;10.064;2023-12-04T15:28:01;-0.90;99.90
3275;DHT22;1649;53.672;10.064;2023-12-04T15:30:33;-0.90;99.90
3275;DHT22;1649;53.672;10.064;2023-12-04T15:32:59;-0.90;99.90
3275;DHT22;1649;53.672;10.064;2023-12-04T15:35:24;-0.90;99.90
3275;DHT22;1649;53.672;10.064;2023-12-04T15:37:49;-0.90;99.90
3275;DHT22;1649;53.672;10.064;2023-12-04T15:40:15;-0.90;99.90
3275;DHT22;1649;53.672;10.064;2023-12-04T15:42:40;-0.90;99.90
3275;DHT22;1649;53.672;10.064;2023-12-04T15:45:06;-0.90;99.90
3275;DHT22;1649;53.672;10.064;2023-12-04T15:47:32;-0.90;99.90
3275;DHT22;1649;53.672;10.064;2023-12-04T15:49:57;-0.90;99.90